Time;durP1;ratioP1;P1;durP2;ratioP2;P2;SDS_P1;SDS_P2;PMS_P1;PMS_P2;Temp;Humidity;BMP_temperature;BMP_pressure;BME280_temperature;BME280_humidity;BME280_pressure;Samples;Min_cycle;Max_cycle;Signal;HPM_P1;HPM_P2
2023/05/07 00:04:38;;;;;;;3.47;1.80;;;;;;;15.56;60.63;99912.94;10505332;28;20052;-64
2023/05/07 00:09:40;;;;;;;3.17;1.83;;;;;;;15.54;60.75;99906.97;10522316;28;20499;-64
2023/05/07 00:14:42;;;;;;;3.67;2.10;;;;;;;15.48;61.43;99907.44;10503314;28;20076;-64
2023/05/07 00:19:44;;;;;;;2.90;1.80;;;;;;;15.52;60.83;99906.25;10505844;28;20131;-63
2023/05/07 00:24:46;;;;;;;3.80;1.85;;;;;;;15.39;61.40;99908.16;10503989;28;20048;-64
2023/05/07 00:29:48;;;;;;;9.15;2.40;;;;;;;15.56;61.54;99905.03;10504017;28;20044;-64
2023/05/07 00:34:50;;;;;;;3.20;2.00;;;;;;;15.54;61.80;99901.69;10489095;28;20071;-64
2023/05/07 00:39:52;;;;;;;3.58;2.10;;;;;;;15.58;61.98;99905.75;10512805;28;20070;-63
2023/05/07 00:44:55;;;;;;;3.40;1.90;;;;;;;15.49;60.89;99909.13;10512521;28;20238;-64
2023/05/07 00:49:57;;;;;;;4.78;2.63;;;;;;;15.49;61.91;99911.75;10481840;28;20054;-64
2023/05/07 00:55:04;;;;;;;5.07;2.30;;;;;;;15.55;62.14;99905.19;10494722;28;20048;-64
2023/05/07 01:00:11;;;;;;;4.97;2.30;;;;;;;15.58;61.76;99911.03;10493390;28;20589;-64
2023/05/07 01:05:17;;;;;;;7.15;2.30;;;;;;;15.62;61.67;99908.97;10508661;28;20565;-63
2023/05/07 01:10:20;;;;;;;4.47;2.42;;;;;;;15.63;61.72;99900.97;10493359;28;20046;-64
2023/05/07 01:15:22;;;;;;;6.03;2.30;;;;;;;15.51;62.18;99904.56;10492121;28;20044;-64
2023/05/07 01:20:24;;;;;;;5.65;2.35;;;;;;;15.48;62.32;99910.06;10508036;28;20086;-63
2023/05/07 01:25:30;;;;;;;5.22;2.60;;;;;;;15.34;62.69;99899.78;10510491;28;20036;-64
2023/05/07 01:30:35;;;;;;;3.70;2.30;;;;;;;15.23;62.72;99897.16;10524494;28;20040;-64
2023/05/07 01:35:46;;;;;;;5.95;2.53;;;;;;;15.35;62.39;99886.47;10483362;28;20700;-64
2023/05/07 01:40:48;;;;;;;4.60;2.25;;;;;;;15.42;62.02;99876.28;10512003;28;20151;-63
2023/05/07 01:45:50;;;;;;;3.90;2.22;;;;;;;15.44;61.69;99877.00;10490566;28;20526;-63
2023/05/07 01:50:52;;;;;;;4.88;2.00;;;;;;;15.43;61.67;99872.69;10490723;28;20072;-63
2023/05/07 01:55:54;;;;;;;4.03;2.40;;;;;;;15.38;62.00;99877.50;10510389;28;20127;-64
2023/05/07 02:00:57;;;;;;;3.83;2.10;;;;;;;15.26;62.23;99876.69;10491145;28;20036;-63
2023/05/07 02:05:59;;;;;;;6.53;2.10;;;;;;;15.32;62.45;99880.63;10499184;28;20080;-63
2023/05/07 02:11:08;;;;;;;3.70;2.22;;;;;;;15.43;61.71;99891.97;10497592;28;20044;-63
2023/05/07 02:16:10;;;;;;;5.03;2.30;;;;;;;15.38;62.14;99883.63;10515779;28;20465;-63
2023/05/07 02:21:13;;;;;;;5.25;2.45;;;;;;;15.35;62.21;99890.91;10497484;28;20073;-63
2023/05/07 02:26:15;;;;;;;5.50;2.42;;;;;;;15.31;62.00;99892.13;10480268;28;20044;-64
2023/05/07 02:31:17;;;;;;;5.50;2.75;;;;;;;15.27;62.38;99890.69;10480177;28;20158;-63
2023/05/07 02:36:19;;;;;;;5.10;2.63;;;;;;;15.24;62.47;99890.94;10513949;28;20077;-65
2023/05/07 02:41:37;;;;;;;3.78;2.40;;;;;;;15.20;62.42;99893.00;10513751;28;20040;-64
2023/05/07 02:46:39;;;;;;;3.92;2.28;;;;;;;15.15;63.05;99891.66;10508001;28;20048;-64
2023/05/07 02:51:44;;;;;;;4.55;2.50;;;;;;;15.20;62.99;99890.34;10529631;28;20077;-64
2023/05/07 02:56:53;;;;;;;5.40;2.40;;;;;;;15.11;63.12;99875.25;10494411;28;20486;-64
2023/05/07 03:01:54;;;;;;;6.85;2.55;;;;;;;15.10;62.99;99878.03;10527986;28;20133;-64
2023/05/07 03:06:56;;;;;;;7.70;2.90;;;;;;;14.93;63.22;99879.34;10490241;28;20040;-64
2023/05/07 03:11:58;;;;;;;6.25;2.53;;;;;;;14.88;63.09;99883.31;10520648;28;20644;-64
2023/05/07 03:17:00;;;;;;;5.88;2.67;;;;;;;14.94;62.43;99881.00;10507053;28;20051;-64
2023/05/07 03:22:02;;;;;;;4.03;2.50;;;;;;;14.85;62.44;99878.28;10505239;28;20036;-64
2023/05/07 03:27:04;;;;;;;6.75;2.22;;;;;;;14.88;62.93;99870.97;10506228;28;20399;-64
2023/05/07 03:32:06;;;;;;;4.53;2.78;;;;;;;14.85;63.29;99859.84;10474111;28;20706;-64
2023/05/07 03:37:09;;;;;;;6.68;2.50;;;;;;;14.86;63.32;99858.91;10504202;28;20314;-64
2023/05/07 03:42:10;;;;;;;4.50;2.88;;;;;;;14.87;62.58;99855.28;10507271;28;20068;-63
2023/05/07 03:47:13;;;;;;;4.25;2.60;;;;;;;14.71;63.11;99862.72;10486965;28;20048;-64
2023/05/07 03:52:15;;;;;;;6.88;2.60;;;;;;;14.76;63.38;99864.03;10521643;28;20139;-64
2023/05/07 03:57:17;;;;;;;4.97;2.63;;;;;;;14.84;62.73;99866.09;10487713;28;20052;-64
2023/05/07 04:02:19;;;;;;;4.78;2.70;;;;;;;14.83;63.23;99864.38;10487347;28;20050;-64
2023/05/07 04:07:21;;;;;;;6.15;2.92;;;;;;;14.57;63.42;99869.88;10488261;28;20528;-64
2023/05/07 04:12:24;;;;;;;4.93;3.00;;;;;;;14.52;63.82;99879.09;10478219;28;20074;-64
2023/05/07 04:17:26;;;;;;;6.25;2.95;;;;;;;14.61;63.34;99877.56;10515679;28;20040;-63
2023/05/07 04:22:28;;;;;;;8.18;3.20;;;;;;;14.61;63.28;99874.91;10496273;28;20117;-63
2023/05/07 04:27:30;;;;;;;7.47;2.92;;;;;;;14.56;63.41;99891.91;10465660;28;20051;-64
2023/05/07 04:32:32;;;;;;;6.75;2.92;;;;;;;14.40;63.76;99894.00;10512750;28;20040;-64
2023/05/07 04:37:34;;;;;;;6.10;3.00;;;;;;;14.47;63.80;99895.19;10494639;28;20052;-64
2023/05/07 04:42:37;;;;;;;6.82;2.72;;;;;;;14.60;64.06;99897.75;10527854;28;20261;-64
2023/05/07 04:47:39;;;;;;;4.85;2.70;;;;;;;14.86;63.52;99895.75;10512702;28;20043;-64
2023/05/07 04:52:41;;;;;;;4.40;2.75;;;;;;;14.92;63.64;99901.38;10510933;28;20072;-64
2023/05/07 04:57:43;;;;;;;4.85;2.72;;;;;;;15.09;63.12;99902.69;10494830;28;20036;-64
2023/05/07 05:02:47;;;;;;;6.18;2.58;;;;;;;15.30;62.46;99909.75;10487670;28;20322;-64
2023/05/07 05:07:53;;;;;;;4.63;2.50;;;;;;;15.26;62.08;99910.09;10476654;28;20059;-64
2023/05/07 05:12:55;;;;;;;4.85;2.67;;;;;;;15.48;62.16;99912.69;10490944;28;20192;-64
2023/05/07 05:17:58;;;;;;;5.72;2.60;;;;;;;15.72;61.50;99921.28;10509773;28;20048;-64
2023/05/07 05:23:00;;;;;;;5.78;3.10;;;;;;;15.84;60.69;99930.84;10476214;28;20044;-64
2023/05/07 05:28:02;;;;;;;6.45;2.63;;;;;;;15.68;61.62;99917.22;10476817;28;20051;-63
2023/05/07 05:33:07;;;;;;;7.15;2.95;;;;;;;15.67;61.80;99920.84;10486806;28;20097;-63
2023/05/07 05:38:10;;;;;;;4.15;2.60;;;;;;;15.99;60.50;99921.69;10479482;28;20143;-64
2023/05/07 05:43:14;;;;;;;5.38;2.92;;;;;;;16.24;59.76;99929.22;10509229;28;20063;-63
2023/05/07 05:48:16;;;;;;;6.00;2.80;;;;;;;16.43;58.86;99936.50;10510811;28;20040;-64
2023/05/07 05:53:19;;;;;;;5.47;2.90;;;;;;;16.74;58.59;99950.59;10475139;28;20044;-64
2023/05/07 05:58:21;;;;;;;4.97;2.80;;;;;;;17.11;58.33;99945.63;10486990;28;20091;-64
2023/05/07 06:03:28;;;;;;;4.45;3.10;;;;;;;17.38;57.17;99943.28;10473916;28;20409;-64
2023/05/07 06:08:33;;;;;;;5.32;3.17;;;;;;;17.59;56.35;99939.56;10483570;28;20645;-64
2023/05/07 06:13:35;;;;;;;6.00;2.90;;;;;;;18.27;54.87;99932.56;10503444;28;20050;-63
2023/05/07 06:18:37;;;;;;;6.13;2.90;;;;;;;18.74;53.50;99941.41;10480723;28;20048;-64
2023/05/07 06:23:41;;;;;;;8.13;3.20;;;;;;;18.34;53.48;99938.97;10516498;28;20381;-64
2023/05/07 06:28:43;;;;;;;5.80;3.05;;;;;;;18.18;53.79;99941.31;10523093;28;20096;-63
2023/05/07 06:33:48;;;;;;;8.65;2.90;;;;;;;18.23;53.42;99945.25;10505801;28;20039;-64
2023/05/07 06:38:51;;;;;;;7.20;3.30;;;;;;;18.55;53.25;99939.63;10529064;28;20074;-64
2023/05/07 06:43:53;;;;;;;5.80;3.00;;;;;;;18.66;52.92;99947.44;10504643;28;20044;-63
2023/05/07 06:49:17;;;;;;;7.38;3.38;;;;;;;18.55;52.63;99942.28;10529857;28;20155;-65
2023/05/07 06:54:20;;;;;;;5.30;3.25;;;;;;;18.70;52.20;99940.88;10490321;28;20143;-65
2023/05/07 06:59:23;;;;;;;4.78;3.20;;;;;;;18.83;52.06;99941.38;10515906;28;20044;-65
2023/05/07 07:04:26;;;;;;;5.78;3.30;;;;;;;19.06;51.52;99933.94;10484398;28;20094;-65
2023/05/07 07:09:35;;;;;;;4.57;3.10;;;;;;;19.11;50.86;99932.56;10492989;28;20037;-65
2023/05/07 07:14:39;;;;;;;5.25;3.10;;;;;;;18.79;51.40;99941.84;10521813;28;20134;-65
2023/05/07 07:19:41;;;;;;;5.35;3.13;;;;;;;19.12;50.89;99936.84;10503937;28;20042;-63
2023/05/07 07:24:44;;;;;;;4.80;3.13;;;;;;;19.37;49.88;99943.31;10503264;28;20090;-65
2023/05/07 07:29:48;;;;;;;6.32;3.20;;;;;;;19.40;50.15;99933.22;10491275;28;20070;-65
2023/05/07 07:34:51;;;;;;;7.20;3.20;;;;;;;19.95;49.55;99930.56;10505410;28;20143;-66
2023/05/07 07:39:56;;;;;;;4.55;3.20;;;;;;;20.17;48.49;99930.09;10506920;28;20052;-64
2023/05/07 07:45:00;;;;;;;4.38;3.00;;;;;;;20.23;48.53;99922.34;10492136;28;20051;-65
2023/05/07 07:50:06;;;;;;;6.28;3.00;;;;;;;20.56;47.86;99923.44;10505435;28;20431;-65
2023/05/07 07:55:09;;;;;;;6.22;3.00;;;;;;;20.54;47.73;99925.41;10510588;28;20516;-65
2023/05/07 08:00:13;;;;;;;3.88;2.85;;;;;;;20.95;47.11;99940.66;10513350;28;20048;-65
2023/05/07 08:05:18;;;;;;;6.53;3.20;;;;;;;21.17;46.00;99933.94;10544053;28;20190;-68
2023/05/07 08:10:22;;;;;;;6.25;2.90;;;;;;;21.50;46.25;99942.94;10510264;28;20058;-65
2023/05/07 08:15:32;;;;;;;5.72;3.00;;;;;;;21.60;45.71;99941.81;10548779;28;20043;-66
2023/05/07 08:20:39;;;;;;;5.75;3.08;;;;;;;22.12;44.71;99926.50;10552191;28;20044;-66
2023/05/07 08:25:43;;;;;;;6.27;3.23;;;;;;;22.54;42.60;99936.97;10490241;28;20854;-66
2023/05/07 08:30:46;;;;;;;4.63;3.05;;;;;;;21.96;42.86;99936.25;10505176;28;20051;-67
2023/05/07 08:35:49;;;;;;;6.57;3.20;;;;;;;22.31;44.12;99931.47;10562250;28;20488;-67
2023/05/07 08:40:52;;;;;;;5.47;3.05;;;;;;;23.13;42.02;99922.38;10517882;28;20449;-67
2023/05/07 08:46:01;;;;;;;5.18;3.45;;;;;;;23.11;40.53;99925.22;10539502;28;20036;-67
2023/05/07 08:51:06;;;;;;;6.45;2.88;;;;;;;22.69;41.93;99928.13;10491998;28;20044;-66
2023/05/07 08:56:10;;;;;;;7.78;3.20;;;;;;;23.38;41.43;99923.97;10501367;28;20039;-66
2023/05/07 09:01:16;;;;;;;5.70;3.20;;;;;;;23.16;40.08;99935.38;10503269;28;20036;-67
2023/05/07 09:06:22;;;;;;;6.97;3.03;;;;;;;22.14;42.44;99929.81;10482001;28;20053;-66
2023/05/07 09:11:25;;;;;;;8.02;3.25;;;;;;;21.79;42.90;99936.22;10517468;28;20534;-66
2023/05/07 09:16:30;;;;;;;4.85;2.90;;;;;;;22.17;43.04;99924.16;10537994;28;20146;-66
2023/05/07 09:21:34;;;;;;;4.97;3.50;;;;;;;22.42;42.58;99928.50;10522429;28;20074;-66
2023/05/07 09:26:39;;;;;;;7.97;3.80;;;;;;;22.55;42.20;99923.50;10531361;28;20051;-66
2023/05/07 09:31:45;;;;;;;5.93;3.80;;;;;;;22.09;43.08;99926.00;10526685;28;20661;-66
2023/05/07 09:36:50;;;;;;;5.57;3.72;;;;;;;22.38;42.71;99919.16;10474655;28;1155888;-66
2023/05/07 09:41:54;;;;;;;6.35;3.80;;;;;;;23.05;42.17;99922.41;10518915;28;20043;-67
2023/05/07 09:47:07;;;;;;;6.90;3.78;;;;;;;22.63;42.53;99926.16;10492003;28;20583;-67
2023/05/07 09:52:16;;;;;;;8.65;3.70;;;;;;;22.17;43.07;99923.34;10544214;28;20044;-66
2023/05/07 09:57:23;;;;;;;7.63;4.10;;;;;;;22.44;43.17;99915.81;10507805;28;20369;-66
2023/05/07 10:02:31;;;;;;;7.65;4.10;;;;;;;22.44;43.31;99918.50;10510793;28;20036;-66
2023/05/07 10:07:35;;;;;;;6.47;4.00;;;;;;;22.70;42.55;99916.47;10517695;28;20044;-66
2023/05/07 10:12:41;;;;;;;10.75;4.43;;;;;;;23.41;42.42;99902.31;10515418;28;20872;-66
2023/05/07 10:17:51;;;;;;;7.38;4.75;;;;;;;23.10;41.67;99901.38;10499375;28;20036;-68
2023/05/07 10:22:55;;;;;;;7.25;4.45;;;;;;;23.60;41.99;99906.34;10540297;28;20516;-67
2023/05/07 10:28:08;;;;;;;7.03;3.90;;;;;;;23.73;40.75;99903.94;10501287;28;20386;-67
2023/05/07 10:33:15;;;;;;;6.80;3.90;;;;;;;23.73;40.62;99910.13;10506729;28;20076;-68
2023/05/07 10:38:18;;;;;;;4.82;3.50;;;;;;;23.81;41.17;99891.38;10508248;28;20547;-68
2023/05/07 10:43:21;;;;;;;5.40;3.88;;;;;;;23.86;40.99;99909.56;10496057;28;20040;-67
2023/05/07 10:48:30;;;;;;;6.22;3.97;;;;;;;24.20;40.42;99901.97;10537137;28;20052;-67
2023/05/07 10:53:38;;;;;;;7.18;4.40;;;;;;;24.14;40.11;99897.34;10509936;28;20083;-68
2023/05/07 10:58:46;;;;;;;6.00;3.85;;;;;;;23.93;40.66;99895.31;10507783;28;20131;-67
2023/05/07 11:04:15;;;;;;;5.25;3.60;;;;;;;23.45;41.31;99891.06;10507731;28;20048;-67
2023/05/07 11:09:52;;;;;;;5.80;3.72;;;;;;;23.05;40.96;99890.38;10501420;28;20044;-68
2023/05/07 11:15:09;;;;;;;4.72;3.10;;;;;;;23.01;41.43;99886.41;10508626;28;20040;-67
2023/05/07 11:20:13;;;;;;;7.57;3.22;;;;;;;23.01;42.01;99883.75;10495463;28;20161;-66
2023/05/07 11:25:25;;;;;;;5.63;3.20;;;;;;;22.80;41.18;99884.28;10494332;28;20044;-66
2023/05/07 11:30:42;;;;;;;5.15;3.10;;;;;;;22.89;41.77;99888.63;10508984;28;20070;-66
2023/05/07 11:35:47;;;;;;;5.60;3.72;;;;;;;23.39;41.25;99872.25;10508432;28;20184;-66
2023/05/07 11:40:53;;;;;;;6.60;3.30;;;;;;;23.98;39.60;99866.19;10507561;28;20414;-66
2023/05/07 11:46:04;;;;;;;4.57;3.33;;;;;;;24.24;38.44;99876.56;10511680;28;20127;-67
2023/05/07 11:51:08;;;;;;;5.70;3.58;;;;;;;23.85;39.05;99870.47;10519211;28;20101;-67
2023/05/07 11:56:16;;;;;;;5.00;3.50;;;;;;;23.57;40.14;99878.19;10504367;28;20040;-66
2023/05/07 12:01:18;;;;;;;7.68;3.30;;;;;;;23.79;39.85;99868.53;10519115;28;20036;-66
2023/05/07 12:06:20;;;;;;;7.10;3.38;;;;;;;23.40;40.24;99871.22;10536811;28;20056;-66
2023/05/07 12:11:24;;;;;;;5.35;3.40;;;;;;;23.84;39.41;99861.63;10507881;28;20155;-66
2023/05/07 12:16:27;;;;;;;4.85;3.10;;;;;;;23.74;39.04;99862.88;10535381;28;20048;-66
2023/05/07 12:21:29;;;;;;;5.65;2.45;;;;;;;23.83;39.12;99859.97;10533603;28;20377;-66
2023/05/07 12:26:32;;;;;;;4.63;3.00;;;;;;;24.35;38.20;99857.38;10510539;28;20454;-66
2023/05/07 12:31:34;;;;;;;4.60;3.03;;;;;;;24.02;38.03;99867.50;10515291;28;20040;-66
2023/05/07 12:36:38;;;;;;;4.05;2.90;;;;;;;24.43;37.66;99853.84;10507042;28;20125;-66
2023/05/07 12:42:01;;;;;;;6.28;2.70;;;;;;;24.65;37.23;99859.13;10494665;28;20043;-66
2023/05/07 12:47:03;;;;;;;8.20;3.35;;;;;;;25.12;36.51;99855.25;10522092;28;20036;-66
2023/05/07 12:52:06;;;;;;;5.20;3.20;;;;;;;25.07;37.02;99847.78;10529796;28;20774;-66
2023/05/07 12:57:09;;;;;;;6.00;3.13;;;;;;;24.95;37.80;99851.94;10509426;28;20044;-66
2023/05/07 13:02:11;;;;;;;5.25;3.13;;;;;;;24.45;36.76;99849.13;10529138;28;20052;-66
2023/05/07 13:07:15;;;;;;;5.35;3.38;;;;;;;24.35;37.27;99849.38;10510664;28;20048;-66
2023/05/07 13:12:17;;;;;;;4.57;2.67;;;;;;;24.41;38.05;99853.19;10523899;28;20044;-66
2023/05/07 13:17:19;;;;;;;5.63;2.58;;;;;;;24.55;37.23;99852.38;10529882;28;20059;-66
2023/05/07 13:22:21;;;;;;;3.80;2.10;;;;;;;24.60;37.38;99849.97;10528880;28;20484;-66
2023/05/07 13:27:22;;;;;;;4.97;2.78;;;;;;;24.40;38.39;99848.84;10510395;28;21320;-66
2023/05/07 13:32:24;;;;;;;4.07;2.85;;;;;;;24.75;37.20;99840.97;10526791;28;20119;-66
2023/05/07 13:37:26;;;;;;;4.70;2.50;;;;;;;24.09;37.61;99831.09;10523875;28;20036;-66
2023/05/07 13:42:28;;;;;;;3.40;2.22;;;;;;;23.93;38.14;99831.19;10528315;28;20039;-66
2023/05/07 13:47:30;;;;;;;4.95;2.50;;;;;;;23.96;38.79;99824.66;10526991;28;20393;-66
2023/05/07 13:52:32;;;;;;;5.00;2.92;;;;;;;24.21;37.37;99832.31;10535752;28;20052;-66
2023/05/07 13:57:33;;;;;;;4.05;2.42;;;;;;;24.58;37.17;99833.25;10550582;28;20067;-66
2023/05/07 14:02:35;;;;;;;4.88;2.50;;;;;;;24.47;36.96;99823.03;10508550;28;20040;-66
2023/05/07 14:07:37;;;;;;;4.25;2.58;;;;;;;24.26;37.31;99810.38;10525835;28;20518;-66
2023/05/07 14:12:40;;;;;;;3.60;2.33;;;;;;;24.01;36.71;99812.41;10521117;28;20040;-66
2023/05/07 14:17:43;;;;;;;3.85;2.50;;;;;;;24.07;36.65;99811.72;10521933;28;20084;-65
2023/05/07 14:22:45;;;;;;;3.83;2.50;;;;;;;23.99;37.11;99811.78;10529636;28;20032;-66
2023/05/07 14:27:47;;;;;;;3.60;2.47;;;;;;;24.14;37.87;99812.66;10518064;28;20129;-66
2023/05/07 14:32:48;;;;;;;4.53;2.40;;;;;;;24.33;37.45;99799.81;10520779;28;20048;-65
2023/05/07 14:37:50;;;;;;;3.53;2.42;;;;;;;24.18;37.03;99813.13;10520697;28;20640;-66
2023/05/07 14:42:52;;;;;;;7.53;2.42;;;;;;;24.20;37.37;99817.28;10552363;28;20047;-66
2023/05/07 14:47:55;;;;;;;4.25;2.30;;;;;;;24.35;36.88;99816.50;10525341;28;20048;-65
2023/05/07 14:52:57;;;;;;;5.18;2.40;;;;;;;24.21;36.68;99815.44;10540472;28;20479;-66
2023/05/07 14:57:59;;;;;;;3.85;2.50;;;;;;;24.03;37.81;99821.09;10509107;28;20048;-66
2023/05/07 15:03:06;;;;;;;5.80;2.53;;;;;;;24.33;37.54;99823.84;10528879;28;20073;-66
2023/05/07 15:08:08;;;;;;;3.72;2.58;;;;;;;24.40;36.14;99828.28;10501310;28;20353;-66
2023/05/07 15:13:11;;;;;;;4.20;2.28;;;;;;;24.51;36.50;99835.84;10526966;28;20120;-66
2023/05/07 15:18:16;;;;;;;7.05;2.40;;;;;;;24.80;35.67;99835.88;10525297;28;20054;-66
2023/05/07 15:23:18;;;;;;;3.25;2.10;;;;;;;24.67;36.07;99835.69;10524375;28;20455;-66
2023/05/07 15:28:24;;;;;;;4.10;2.17;;;;;;;24.16;36.01;99842.69;10507383;28;20048;-66
2023/05/07 15:33:29;;;;;;;5.45;2.20;;;;;;;23.78;36.70;99840.97;10491685;28;20073;-66
2023/05/07 15:38:31;;;;;;;5.28;2.63;;;;;;;23.83;37.27;99843.97;10525123;28;20304;-67
2023/05/07 15:43:33;;;;;;;4.38;2.75;;;;;;;23.48;37.66;99836.50;10527422;28;20411;-67
2023/05/07 15:48:35;;;;;;;5.70;2.70;;;;;;;23.63;37.29;99841.94;10526997;28;20179;-66
2023/05/07 15:53:37;;;;;;;4.97;2.30;;;;;;;23.82;37.03;99838.81;10526478;28;20555;-66
2023/05/07 15:58:39;;;;;;;4.22;2.35;;;;;;;23.50;36.78;99845.19;10509075;28;20091;-66
2023/05/07 16:03:41;;;;;;;6.97;2.30;;;;;;;23.59;37.04;99849.47;10509125;28;20069;-66
2023/05/07 16:08:43;;;;;;;3.85;2.13;;;;;;;23.66;37.08;99838.88;10496995;28;20044;-67
2023/05/07 16:13:45;;;;;;;4.65;2.70;;;;;;;23.53;36.59;99836.84;10517156;28;20044;-66
2023/05/07 16:18:47;;;;;;;7.15;2.60;;;;;;;23.31;37.27;99848.25;10498236;28;20102;-66
2023/05/07 16:23:49;;;;;;;4.10;2.60;;;;;;;23.14;37.96;99842.19;10514319;28;20424;-67
2023/05/07 16:28:51;;;;;;;5.43;3.00;;;;;;;23.14;37.91;99850.19;10534436;28;20139;-66
2023/05/07 16:33:53;;;;;;;4.32;2.72;;;;;;;23.29;38.70;99847.59;10534684;28;20615;-66
2023/05/07 16:38:55;;;;;;;3.78;2.42;;;;;;;23.05;38.18;99853.03;10529765;28;20075;-66
2023/05/07 16:43:57;;;;;;;4.22;2.50;;;;;;;22.89;37.99;99845.09;10534167;28;20044;-66
2023/05/07 16:48:59;;;;;;;5.88;2.50;;;;;;;23.00;38.51;99847.41;10532680;28;20158;-66
2023/05/07 16:54:01;;;;;;;4.93;2.42;;;;;;;23.07;38.62;99849.22;10534691;28;20040;-66
2023/05/07 16:59:03;;;;;;;3.65;2.33;;;;;;;23.09;38.21;99849.03;10501302;28;20044;-66
2023/05/07 17:04:05;;;;;;;3.72;2.15;;;;;;;22.80;38.17;99851.50;10532655;28;20071;-66
2023/05/07 17:09:08;;;;;;;6.07;2.55;;;;;;;22.76;38.14;99856.31;10513059;28;20044;-66
2023/05/07 17:14:10;;;;;;;4.28;2.20;;;;;;;22.61;38.31;99863.34;10533453;28;20135;-66
2023/05/07 17:19:12;;;;;;;4.57;2.13;;;;;;;22.52;37.98;99857.19;10530435;28;20052;-66
2023/05/07 17:24:14;;;;;;;2.95;2.03;;;;;;;22.48;38.10;99863.84;10524193;28;20109;-66
2023/05/07 17:29:15;;;;;;;4.10;2.20;;;;;;;22.44;38.33;99878.53;10531790;28;20036;-66
2023/05/07 17:34:17;;;;;;;3.75;2.33;;;;;;;22.13;39.08;99909.50;10532673;28;20138;-66
2023/05/07 17:39:19;;;;;;;5.05;2.10;;;;;;;21.57;41.33;99912.03;10529694;28;20051;-67
2023/05/07 17:44:21;;;;;;;7.80;2.15;;;;;;;20.77;43.71;99936.41;10531815;28;20504;-67
2023/05/07 17:49:23;;;;;;;5.22;2.60;;;;;;;20.07;46.94;99947.94;10511397;28;20055;-66
2023/05/07 17:54:26;;;;;;;9.75;3.13;;;;;;;19.58;51.42;99962.47;10511971;28;20067;-67
2023/05/07 17:59:28;;;;;;;18.40;5.30;;;;;;;18.70;55.59;99993.00;10533263;28;20593;-67
2023/05/07 18:04:30;;;;;;;18.45;4.47;;;;;;;16.86;60.41;100010.31;10537666;28;20075;-66
2023/05/07 18:09:33;;;;;;;11.93;3.80;;;;;;;16.12;63.33;100016.50;10538692;28;20548;-66
2023/05/07 18:14:35;;;;;;;9.32;3.65;;;;;;;16.00;62.88;100023.59;10527689;28;20396;-66
2023/05/07 18:19:37;;;;;;;7.80;3.03;;;;;;;15.81;64.11;100033.97;10546481;28;20130;-64
2023/05/07 18:24:39;;;;;;;13.40;3.50;;;;;;;15.97;64.08;100046.75;10509028;28;20568;-64
2023/05/07 18:29:41;;;;;;;9.70;3.50;;;;;;;15.98;64.40;100057.16;10514728;28;20079;-63
2023/05/07 18:34:43;;;;;;;11.02;3.65;;;;;;;15.86;64.84;100081.88;10513163;28;20044;-63
2023/05/07 18:39:45;;;;;;;14.32;3.83;;;;;;;16.04;64.95;100093.63;10516667;28;20044;-63
2023/05/07 18:44:46;;;;;;;8.10;3.53;;;;;;;16.24;64.58;100102.59;10519427;28;20115;-63
2023/05/07 18:49:48;;;;;;;11.63;3.92;;;;;;;16.26;63.60;100113.88;10519886;28;20131;-63
2023/05/07 18:54:50;;;;;;;7.25;3.95;;;;;;;15.84;64.49;100130.44;10519232;28;20051;-63
2023/05/07 18:59:53;;;;;;;13.68;4.20;;;;;;;15.91;65.46;100153.59;10523291;28;20134;-63
2023/05/07 19:04:55;;;;;;;10.50;4.03;;;;;;;16.12;65.02;100173.00;10498447;28;20399;-63
2023/05/07 19:09:58;;;;;;;8.65;3.85;;;;;;;16.11;64.38;100183.69;10522599;28;20434;-63
2023/05/07 19:15:07;;;;;;;8.45;4.10;;;;;;;15.95;64.89;100186.69;10524146;28;20462;-62
2023/05/07 19:20:09;;;;;;;11.00;4.38;;;;;;;16.24;64.97;100198.41;10508570;28;20226;-62
2023/05/07 19:25:12;;;;;;;9.38;4.35;;;;;;;16.42;64.12;100211.13;10528553;28;20040;-62
2023/05/07 19:30:14;;;;;;;7.63;3.67;;;;;;;16.06;64.25;100220.16;10535285;28;20044;-63
2023/05/07 19:35:16;;;;;;;6.65;3.50;;;;;;;15.82;64.86;100222.88;10544533;28;20036;-63
2023/05/07 19:40:18;;;;;;;8.45;3.80;;;;;;;15.69;65.40;100224.78;10556079;28;20144;-63
2023/05/07 19:45:20;;;;;;;13.60;5.53;;;;;;;15.90;66.34;100232.81;10577223;28;20047;-63
2023/05/07 19:50:21;;;;;;;11.73;6.00;;;;;;;15.98;65.29;100233.06;10537574;28;20120;-62
2023/05/07 19:55:23;;;;;;;6.90;3.78;;;;;;;15.78;65.75;100245.16;10538396;28;20476;-63
2023/05/07 20:00:26;;;;;;;10.27;4.70;;;;;;;15.86;66.02;100242.78;10522962;28;20450;-63
2023/05/07 20:05:28;;;;;;;9.80;4.88;;;;;;;15.91;65.74;100240.63;10533926;28;20032;-62
2023/05/07 20:10:30;;;;;;;8.13;3.65;;;;;;;15.91;65.70;100245.06;10528634;28;20044;-64
2023/05/07 20:15:32;;;;;;;7.93;3.58;;;;;;;15.86;66.19;100249.84;10542125;28;20130;-63
2023/05/07 20:20:34;;;;;;;7.50;3.70;;;;;;;15.72;66.29;100253.53;10545259;28;20052;-63
2023/05/07 20:25:36;;;;;;;9.95;4.03;;;;;;;15.70;66.64;100252.81;10569959;28;20067;-63
2023/05/07 20:30:39;;;;;;;7.68;4.07;;;;;;;15.73;66.40;100254.38;10574878;28;20055;-63
2023/05/07 20:35:41;;;;;;;9.63;3.70;;;;;;;16.00;66.34;100253.09;10572256;28;20554;-63
2023/05/07 20:40:42;;;;;;;8.82;4.05;;;;;;;16.13;66.40;100248.56;10560391;28;20108;-63
2023/05/07 20:45:44;;;;;;;11.95;6.72;;;;;;;16.34;66.23;100253.13;10574379;28;20325;-63
2023/05/07 20:50:46;;;;;;;10.35;5.05;;;;;;;16.20;66.18;100246.31;10529653;28;20507;-63
2023/05/07 20:55:48;;;;;;;13.27;5.57;;;;;;;16.18;66.39;100256.94;10540530;28;20412;-63
2023/05/07 21:00:52;;;;;;;11.35;6.05;;;;;;;16.17;66.57;100259.72;10540276;28;20050;-63
2023/05/07 21:05:55;;;;;;;7.18;4.20;;;;;;;16.22;65.86;100249.66;10549944;28;20044;-63
2023/05/07 21:10:57;;;;;;;9.18;4.80;;;;;;;16.14;65.90;100259.97;10538224;28;20442;-63
2023/05/07 21:15:58;;;;;;;9.73;4.38;;;;;;;16.25;65.98;100273.16;10514635;28;20496;-63
2023/05/07 21:21:00;;;;;;;8.13;5.05;;;;;;;16.35;65.52;100271.47;10533308;28;20132;-64
2023/05/07 21:26:03;;;;;;;10.13;4.88;;;;;;;16.38;64.92;100275.69;10518860;28;20074;-63
2023/05/07 21:31:04;;;;;;;10.98;5.90;;;;;;;16.13;65.42;100269.69;10515613;28;20080;-63
2023/05/07 21:36:07;;;;;;;8.50;4.80;;;;;;;16.05;65.67;100268.59;10530317;28;20101;-63
2023/05/07 21:41:08;;;;;;;14.77;8.02;;;;;;;15.88;66.18;100280.44;10572215;28;20035;-63
2023/05/07 21:46:10;;;;;;;12.93;6.95;;;;;;;15.71;66.36;100272.97;10561984;28;20491;-63
2023/05/07 21:51:12;;;;;;;9.65;5.82;;;;;;;15.73;66.28;100273.69;10571216;28;20108;-63
2023/05/07 21:56:14;;;;;;;9.13;5.50;;;;;;;15.75;66.17;100271.78;10560055;28;20040;-63
2023/05/07 22:01:16;;;;;;;11.40;6.47;;;;;;;15.77;66.64;100280.41;10568137;28;20474;-63
2023/05/07 22:06:20;;;;;;;13.32;9.30;;;;;;;15.93;67.08;100274.81;10560790;28;20047;-64
2023/05/07 22:11:22;;;;;;;14.32;7.80;;;;;;;16.06;66.53;100280.84;10568795;28;20040;-63
2023/05/07 22:16:24;;;;;;;8.60;6.38;;;;;;;16.20;66.26;100283.25;10569342;28;20078;-63
2023/05/07 22:21:26;;;;;;;10.63;7.57;;;;;;;15.93;65.92;100299.41;10547403;28;20110;-64
2023/05/07 22:26:27;;;;;;;11.20;7.75;;;;;;;15.76;66.31;100291.91;10555069;28;20100;-64
2023/05/07 22:31:30;;;;;;;9.65;7.75;;;;;;;15.89;66.34;100297.09;10534719;28;20131;-64
2023/05/07 22:36:32;;;;;;;11.70;7.85;;;;;;;15.90;65.46;100299.63;10530076;28;20052;-64
2023/05/07 22:41:33;;;;;;;10.60;8.00;;;;;;;15.56;64.90;100297.84;10541801;28;20494;-64
2023/05/07 22:46:35;;;;;;;13.18;8.27;;;;;;;15.63;65.43;100299.06;10515155;28;20612;-64
2023/05/07 22:51:37;;;;;;;15.02;9.45;;;;;;;15.73;64.31;100301.84;10552649;28;20044;-64
2023/05/07 22:56:39;;;;;;;17.10;10.20;;;;;;;15.68;65.24;100299.56;10532383;28;20130;-64
2023/05/07 23:01:41;;;;;;;13.02;10.35;;;;;;;15.75;64.85;100302.56;10527030;28;20054;-64
2023/05/07 23:06:43;;;;;;;12.40;10.00;;;;;;;15.69;64.32;100306.53;10536743;28;20434;-64
2023/05/07 23:11:45;;;;;;;12.98;10.85;;;;;;;15.55;63.86;100306.69;10531791;28;20512;-63
2023/05/07 23:16:47;;;;;;;12.27;9.32;;;;;;;15.32;63.78;100296.97;10541503;28;20125;-64
2023/05/07 23:21:49;;;;;;;14.77;11.32;;;;;;;15.27;64.79;100301.75;10568030;28;20131;-64
2023/05/07 23:26:50;;;;;;;14.20;11.10;;;;;;;15.15;63.66;100311.38;10542737;28;20048;-64